CSN3519 ZYTL-ZHHH
Flight info
| Callsign | CSN3519 |
|---|---|
| Flight time | 1h 52m |
| Altitude | 34100 |
| Route | KARPI W5 GUMED V42 REPOL W4 UPDAD V4 PABTA W4 IPNIT W37 PONUD |
| Aircraft | A359/H-SDE2E3FGHIJ1RWXY/LB1 |
Departure
| Time | 2026-04-17 01:26 |
|---|---|
| Airport | Dalian Zhoushuizi International Airport (ZYTL) |
Arrival
| Time | 2026-04-17 03:18 |
|---|---|
| Airport | Wuhan Tianhe International Airport (ZHHH) |
| Time | Latitude | Longitude | Altitude | Speed | Heading |
|---|---|---|---|---|---|
| 2026-04-17 01:07 | 38.96237 | 121.54235 | 122 ft | 0 kts | 182° |
| 2026-04-17 01:16 | 38.96244 | 121.54236 | 118 ft | 2 kts | 182° |
| 2026-04-17 01:17 | 38.96261 | 121.54236 | 118 ft | 2 kts | 182° |
| 2026-04-17 01:17 | 38.96277 | 121.54237 | 117 ft | 2 kts | 182° |
| 2026-04-17 01:17 | 38.96293 | 121.54238 | 118 ft | 2 kts | 182° |
| 2026-04-17 01:17 | 38.96309 | 121.54239 | 118 ft | 2 kts | 182° |
| 2026-04-17 01:18 | 38.96325 | 121.54239 | 118 ft | 2 kts | 182° |
| 2026-04-17 01:18 | 38.96339 | 121.54248 | 117 ft | 2 kts | 234° |
| 2026-04-17 01:18 | 38.96348 | 121.54265 | 118 ft | 2 kts | 226° |
| 2026-04-17 01:18 | 38.96351 | 121.54284 | 118 ft | 2 kts | 290° |
| 2026-04-17 01:19 | 38.96345 | 121.54299 | 118 ft | 0 kts | 278° |
| 2026-04-17 01:20 | 38.96353 | 121.54227 | 118 ft | 21 kts | 277° |
| 2026-04-17 01:20 | 38.96370 | 121.54023 | 118 ft | 24 kts | 275° |
| 2026-04-17 01:20 | 38.96387 | 121.53802 | 122 ft | 26 kts | 276° |
| 2026-04-17 01:21 | 38.96403 | 121.53561 | 122 ft | 28 kts | 276° |
| 2026-04-17 01:21 | 38.96419 | 121.53301 | 120 ft | 29 kts | 265° |
| 2026-04-17 01:21 | 38.96421 | 121.53039 | 120 ft | 30 kts | 276° |
| 2026-04-17 01:21 | 38.96443 | 121.52768 | 119 ft | 32 kts | 276° |
| 2026-04-17 01:22 | 38.96466 | 121.52479 | 122 ft | 33 kts | 276° |
| 2026-04-17 01:22 | 38.96488 | 121.52199 | 120 ft | 28 kts | 276° |
| 2026-04-17 01:22 | 38.96494 | 121.52118 | 118 ft | 7 kts | 276° |
| 2026-04-17 01:22 | 38.96521 | 121.51995 | 120 ft | 17 kts | 306° |
| 2026-04-17 01:23 | 38.96570 | 121.51953 | 118 ft | 0 kts | 348° |
| 2026-04-17 01:24 | 38.96627 | 121.51954 | 119 ft | 16 kts | 5° |
| 2026-04-17 01:24 | 38.96691 | 121.52047 | 119 ft | 15 kts | 80° |
| 2026-04-17 01:24 | 38.96691 | 121.52121 | 122 ft | 0 kts | 95° |
| 2026-04-17 01:25 | 38.96682 | 121.52241 | 120 ft | 42 kts | 95° |
| 2026-04-17 01:25 | 38.96615 | 121.53083 | 119 ft | 146 kts | 96° |
| 2026-04-17 01:25 | 38.96511 | 121.54699 | 570 ft | 200 kts | 95° |
| 2026-04-17 01:26 | 38.96391 | 121.56567 | 1760 ft | 222 kts | 101° |
| 2026-04-17 01:26 | 38.96168 | 121.58751 | 2613 ft | 264 kts | 101° |
| 2026-04-17 01:26 | 38.95936 | 121.61150 | 3655 ft | 265 kts | 98° |
| 2026-04-17 01:26 | 38.95754 | 121.63444 | 4599 ft | 254 kts | 96° |
| 2026-04-17 01:27 | 38.95601 | 121.65699 | 5470 ft | 253 kts | 95° |
| 2026-04-17 01:27 | 38.95446 | 121.67953 | 6475 ft | 255 kts | 94° |
| 2026-04-17 01:27 | 38.95340 | 121.70232 | 7223 ft | 256 kts | 86° |
| 2026-04-17 01:27 | 38.95796 | 121.72407 | 7776 ft | 253 kts | 56° |
| 2026-04-17 01:28 | 38.97030 | 121.73959 | 8561 ft | 249 kts | 26° |
| 2026-04-17 01:28 | 38.98648 | 121.74591 | 9745 ft | 241 kts | 6° |
| 2026-04-17 01:28 | 39.00310 | 121.74764 | 10786 ft | 241 kts | 358° |
| 2026-04-17 01:28 | 39.01960 | 121.74362 | 11666 ft | 246 kts | 337° |
| 2026-04-17 01:29 | 39.03353 | 121.73122 | 12549 ft | 254 kts | 315° |
| 2026-04-17 01:29 | 39.04616 | 121.68512 | 13512 ft | 305 kts | 278° |
| 2026-04-17 01:29 | 39.04782 | 121.65696 | 13962 ft | 326 kts | 277° |
| 2026-04-17 01:30 | 39.04971 | 121.62710 | 14400 ft | 343 kts | 277° |
| 2026-04-17 01:30 | 39.05031 | 121.59595 | 15083 ft | 353 kts | 269° |
| 2026-04-17 01:30 | 39.04522 | 121.56478 | 15921 ft | 362 kts | 253° |
| 2026-04-17 01:30 | 39.03313 | 121.53601 | 16800 ft | 371 kts | 236° |
| 2026-04-17 01:31 | 39.01455 | 121.51249 | 17684 ft | 381 kts | 219° |
| 2026-04-17 01:31 | 38.99075 | 121.49661 | 18560 ft | 390 kts | 204° |
| 2026-04-17 01:31 | 38.96541 | 121.48350 | 19226 ft | 395 kts | 208° |
| 2026-04-17 01:31 | 38.94055 | 121.46845 | 19615 ft | 396 kts | 210° |
| 2026-04-17 01:32 | 38.91576 | 121.45278 | 19715 ft | 397 kts | 210° |
| 2026-04-17 01:32 | 38.89097 | 121.43696 | 19801 ft | 400 kts | 211° |
| 2026-04-17 01:32 | 38.86592 | 121.42100 | 20353 ft | 404 kts | 210° |
| 2026-04-17 01:32 | 38.84070 | 121.40492 | 21216 ft | 405 kts | 211° |
| 2026-04-17 01:33 | 38.81539 | 121.38871 | 22031 ft | 408 kts | 211° |
| 2026-04-17 01:33 | 38.78980 | 121.37233 | 22785 ft | 413 kts | 211° |
| 2026-04-17 01:33 | 38.76400 | 121.35583 | 23537 ft | 417 kts | 211° |
| 2026-04-17 01:33 | 38.73796 | 121.33921 | 24178 ft | 421 kts | 211° |
| 2026-04-17 01:34 | 38.71165 | 121.32245 | 24819 ft | 424 kts | 211° |
| 2026-04-17 01:34 | 38.68514 | 121.30557 | 25477 ft | 427 kts | 211° |
| 2026-04-17 01:34 | 38.65845 | 121.28859 | 26128 ft | 430 kts | 211° |
| 2026-04-17 01:34 | 38.63190 | 121.27172 | 26756 ft | 433 kts | 211° |
| 2026-04-17 01:35 | 38.60443 | 121.25427 | 27393 ft | 436 kts | 211° |
| 2026-04-17 01:35 | 38.57771 | 121.23684 | 28014 ft | 438 kts | 213° |
| 2026-04-17 01:35 | 38.55221 | 121.21577 | 28624 ft | 436 kts | 221° |
| 2026-04-17 01:35 | 38.52978 | 121.18988 | 29230 ft | 434 kts | 230° |
| 2026-04-17 01:36 | 38.51057 | 121.16011 | 29818 ft | 435 kts | 236° |
| 2026-04-17 01:36 | 38.49248 | 121.12904 | 30326 ft | 438 kts | 237° |
| 2026-04-17 01:36 | 38.47435 | 121.09775 | 30829 ft | 440 kts | 236° |
| 2026-04-17 01:36 | 38.45607 | 121.06640 | 31325 ft | 441 kts | 236° |
| 2026-04-17 01:37 | 38.43763 | 121.03491 | 31797 ft | 443 kts | 236° |
| 2026-04-17 01:37 | 38.41914 | 121.00342 | 32250 ft | 445 kts | 236° |
| 2026-04-17 01:37 | 38.40052 | 120.97176 | 32677 ft | 447 kts | 236° |
| 2026-04-17 01:37 | 38.38182 | 120.94003 | 33094 ft | 449 kts | 236° |
| 2026-04-17 01:38 | 38.36304 | 120.90819 | 33512 ft | 450 kts | 236° |
| 2026-04-17 01:38 | 38.34424 | 120.87637 | 33983 ft | 450 kts | 236° |
| 2026-04-17 01:38 | 38.32543 | 120.84456 | 34123 ft | 448 kts | 236° |
| 2026-04-17 01:39 | 38.28815 | 120.78165 | 34138 ft | 444 kts | 236° |
| 2026-04-17 01:39 | 38.24660 | 120.72312 | 34139 ft | 450 kts | 224° |
| 2026-04-17 01:40 | 38.19302 | 120.68057 | 34136 ft | 458 kts | 212° |
| 2026-04-17 01:40 | 38.13567 | 120.64485 | 34136 ft | 460 kts | 211° |
| 2026-04-17 01:41 | 38.07801 | 120.60986 | 34132 ft | 459 kts | 211° |
| 2026-04-17 01:41 | 38.02528 | 120.56613 | 34137 ft | 449 kts | 226° |
| 2026-04-17 01:42 | 37.98549 | 120.50657 | 34135 ft | 441 kts | 240° |
| 2026-04-17 01:43 | 37.92142 | 120.37054 | 34147 ft | 440 kts | 242° |
| 2026-04-17 01:43 | 37.89030 | 120.30367 | 34134 ft | 440 kts | 242° |
| 2026-04-17 01:44 | 37.85914 | 120.23755 | 34130 ft | 441 kts | 242° |
| 2026-04-17 01:44 | 37.82743 | 120.17064 | 34133 ft | 441 kts | 242° |
| 2026-04-17 01:45 | 37.79607 | 120.10463 | 34132 ft | 441 kts | 242° |
| 2026-04-17 01:45 | 37.76450 | 120.03825 | 34132 ft | 441 kts | 242° |
| 2026-04-17 01:46 | 37.73282 | 119.97191 | 34131 ft | 441 kts | 242° |
| 2026-04-17 01:46 | 37.70120 | 119.90568 | 34127 ft | 441 kts | 242° |
| 2026-04-17 01:47 | 37.67468 | 119.85018 | 34126 ft | 440 kts | 242° |
| 2026-04-17 01:47 | 37.63785 | 119.77332 | 34126 ft | 440 kts | 242° |
| 2026-04-17 01:48 | 37.61164 | 119.71825 | 34125 ft | 439 kts | 244° |
| 2026-04-17 01:48 | 37.59569 | 119.67115 | 34130 ft | 436 kts | 255° |
| 2026-04-17 01:48 | 37.59104 | 119.64661 | 34130 ft | 434 kts | 261° |
| 2026-04-17 01:49 | 37.57780 | 119.57228 | 34132 ft | 436 kts | 255° |
| 2026-04-17 01:49 | 37.56336 | 119.49820 | 34130 ft | 435 kts | 258° |
| 2026-04-17 01:50 | 37.54923 | 119.42398 | 34127 ft | 435 kts | 258° |
| 2026-04-17 01:50 | 37.53493 | 119.34986 | 34130 ft | 435 kts | 257° |
| 2026-04-17 01:51 | 37.52055 | 119.27581 | 34131 ft | 435 kts | 257° |
| 2026-04-17 01:51 | 37.50612 | 119.20182 | 34133 ft | 435 kts | 257° |
| 2026-04-17 01:52 | 37.49165 | 119.12781 | 34130 ft | 435 kts | 257° |
| 2026-04-17 01:52 | 37.47715 | 119.05392 | 34132 ft | 435 kts | 257° |
| 2026-04-17 01:53 | 37.46258 | 118.97993 | 34131 ft | 435 kts | 257° |
| 2026-04-17 01:53 | 37.44799 | 118.90607 | 34132 ft | 435 kts | 257° |
| 2026-04-17 01:54 | 37.43345 | 118.83278 | 34132 ft | 435 kts | 257° |
| 2026-04-17 01:54 | 37.41876 | 118.75898 | 34131 ft | 435 kts | 257° |
| 2026-04-17 01:55 | 37.40404 | 118.68526 | 34131 ft | 435 kts | 257° |
| 2026-04-17 01:55 | 37.38927 | 118.61153 | 34128 ft | 435 kts | 257° |
| 2026-04-17 01:56 | 37.37445 | 118.53784 | 34130 ft | 435 kts | 257° |
| 2026-04-17 01:56 | 37.35959 | 118.46421 | 34131 ft | 435 kts | 257° |
| 2026-04-17 01:57 | 37.34469 | 118.39065 | 34133 ft | 435 kts | 257° |
| 2026-04-17 01:57 | 37.32974 | 118.31709 | 34132 ft | 435 kts | 257° |
| 2026-04-17 01:58 | 37.31475 | 118.24354 | 34133 ft | 435 kts | 257° |
| 2026-04-17 01:58 | 37.29969 | 118.16996 | 34129 ft | 435 kts | 257° |
| 2026-04-17 01:59 | 37.28461 | 118.09651 | 34128 ft | 435 kts | 257° |
| 2026-04-17 01:59 | 37.26948 | 118.02307 | 34130 ft | 434 kts | 257° |
| 2026-04-17 02:00 | 37.25429 | 117.94962 | 34134 ft | 435 kts | 257° |
| 2026-04-17 02:00 | 37.23907 | 117.87620 | 34132 ft | 435 kts | 257° |
| 2026-04-17 02:01 | 37.22379 | 117.80279 | 34131 ft | 435 kts | 257° |
| 2026-04-17 02:01 | 37.20848 | 117.72945 | 34135 ft | 435 kts | 257° |
| 2026-04-17 02:02 | 37.19309 | 117.65605 | 34136 ft | 435 kts | 257° |
| 2026-04-17 02:02 | 37.17770 | 117.58281 | 34134 ft | 435 kts | 257° |
| 2026-04-17 02:03 | 37.16225 | 117.50957 | 34129 ft | 435 kts | 257° |
| 2026-04-17 02:03 | 37.14750 | 117.43985 | 34130 ft | 434 kts | 257° |
| 2026-04-17 02:04 | 37.13198 | 117.36672 | 34130 ft | 434 kts | 257° |
| 2026-04-17 02:04 | 37.11641 | 117.29363 | 34127 ft | 434 kts | 257° |
| 2026-04-17 02:05 | 37.10070 | 117.22008 | 34130 ft | 434 kts | 257° |
| 2026-04-17 02:05 | 37.08503 | 117.14701 | 34124 ft | 434 kts | 257° |
| 2026-04-17 02:06 | 37.06932 | 117.07398 | 34122 ft | 434 kts | 257° |
| 2026-04-17 02:06 | 37.05368 | 117.00149 | 34120 ft | 434 kts | 257° |
| 2026-04-17 02:07 | 37.03790 | 116.92858 | 34123 ft | 434 kts | 257° |
| 2026-04-17 02:07 | 37.02207 | 116.85570 | 34122 ft | 434 kts | 257° |
| 2026-04-17 02:08 | 37.00620 | 116.78290 | 34123 ft | 434 kts | 257° |
| 2026-04-17 02:08 | 36.99028 | 116.71008 | 34125 ft | 434 kts | 257° |
| 2026-04-17 02:09 | 36.97434 | 116.63739 | 34127 ft | 434 kts | 257° |
| 2026-04-17 02:09 | 36.95834 | 116.56466 | 34125 ft | 433 kts | 257° |
| 2026-04-17 02:10 | 36.94232 | 116.49208 | 34124 ft | 433 kts | 257° |
| 2026-04-17 02:10 | 36.92626 | 116.41959 | 34127 ft | 433 kts | 257° |
| 2026-04-17 02:11 | 36.91017 | 116.34716 | 34129 ft | 433 kts | 257° |
| 2026-04-17 02:11 | 36.89403 | 116.27469 | 34123 ft | 432 kts | 257° |
| 2026-04-17 02:12 | 36.87785 | 116.20233 | 34123 ft | 432 kts | 257° |
| 2026-04-17 02:12 | 36.86165 | 116.13011 | 34125 ft | 432 kts | 257° |
| 2026-04-17 02:13 | 36.84540 | 116.05786 | 34128 ft | 432 kts | 256° |
| 2026-04-17 02:13 | 36.82911 | 115.98562 | 34129 ft | 432 kts | 256° |
| 2026-04-17 02:14 | 36.81276 | 115.91338 | 34128 ft | 432 kts | 256° |
| 2026-04-17 02:14 | 36.79640 | 115.84132 | 34128 ft | 432 kts | 256° |
| 2026-04-17 02:15 | 36.77705 | 115.77023 | 34128 ft | 434 kts | 250° |
| 2026-04-17 02:15 | 36.75334 | 115.70094 | 34128 ft | 434 kts | 249° |
| 2026-04-17 02:16 | 36.72912 | 115.63248 | 34128 ft | 435 kts | 249° |
| 2026-04-17 02:16 | 36.70451 | 115.56317 | 34128 ft | 435 kts | 249° |
| 2026-04-17 02:17 | 36.68009 | 115.49424 | 34127 ft | 435 kts | 249° |
| 2026-04-17 02:17 | 36.65565 | 115.42527 | 34128 ft | 435 kts | 249° |
| 2026-04-17 02:18 | 36.63120 | 115.35640 | 34137 ft | 435 kts | 249° |
| 2026-04-17 02:18 | 36.60692 | 115.28806 | 34132 ft | 435 kts | 249° |
| 2026-04-17 02:19 | 36.58185 | 115.21954 | 34130 ft | 437 kts | 245° |
| 2026-04-17 02:19 | 36.54670 | 115.15747 | 34132 ft | 445 kts | 231° |
| 2026-04-17 02:20 | 36.49735 | 115.10973 | 34126 ft | 458 kts | 214° |
| 2026-04-17 02:20 | 36.43981 | 115.07456 | 34128 ft | 462 kts | 211° |
| 2026-04-17 02:21 | 36.38091 | 115.04229 | 34137 ft | 466 kts | 207° |
| 2026-04-17 02:21 | 36.31717 | 115.02374 | 34135 ft | 478 kts | 193° |
| 2026-04-17 02:22 | 36.25080 | 115.01585 | 34139 ft | 480 kts | 191° |
| 2026-04-17 02:22 | 36.18416 | 115.00963 | 34140 ft | 480 kts | 191° |
| 2026-04-17 02:23 | 36.11763 | 115.00328 | 34145 ft | 479 kts | 191° |
| 2026-04-17 02:23 | 36.05113 | 114.99662 | 34141 ft | 478 kts | 191° |
| 2026-04-17 02:24 | 35.98534 | 114.98992 | 34147 ft | 478 kts | 192° |
| 2026-04-17 02:24 | 35.91908 | 114.98315 | 34149 ft | 477 kts | 192° |
| 2026-04-17 02:25 | 35.85297 | 114.97643 | 34144 ft | 477 kts | 192° |
| 2026-04-17 02:25 | 35.78694 | 114.96974 | 34143 ft | 476 kts | 192° |
| 2026-04-17 02:26 | 35.72093 | 114.96306 | 34144 ft | 475 kts | 192° |
| 2026-04-17 02:26 | 35.65504 | 114.95642 | 34140 ft | 475 kts | 192° |
| 2026-04-17 02:27 | 35.58917 | 114.94978 | 34143 ft | 474 kts | 192° |
| 2026-04-17 02:27 | 35.52342 | 114.94317 | 34143 ft | 474 kts | 192° |
| 2026-04-17 02:28 | 35.45776 | 114.93658 | 34135 ft | 473 kts | 193° |
| 2026-04-17 02:28 | 35.39218 | 114.93001 | 34146 ft | 472 kts | 193° |
| 2026-04-17 02:29 | 35.32669 | 114.92346 | 34142 ft | 472 kts | 193° |
| 2026-04-17 02:29 | 35.26129 | 114.91693 | 34139 ft | 471 kts | 194° |
| 2026-04-17 02:30 | 35.19606 | 114.91042 | 34137 ft | 470 kts | 194° |
| 2026-04-17 02:30 | 35.13085 | 114.90392 | 34138 ft | 470 kts | 194° |
| 2026-04-17 02:31 | 35.06573 | 114.89745 | 34141 ft | 469 kts | 194° |
| 2026-04-17 02:31 | 35.00075 | 114.89099 | 34136 ft | 468 kts | 195° |
| 2026-04-17 02:32 | 34.93574 | 114.88455 | 34133 ft | 468 kts | 195° |
| 2026-04-17 02:32 | 34.87138 | 114.87816 | 34138 ft | 467 kts | 195° |
| 2026-04-17 02:33 | 34.80656 | 114.87174 | 34140 ft | 467 kts | 195° |
| 2026-04-17 02:33 | 34.74170 | 114.86533 | 34132 ft | 467 kts | 195° |
| 2026-04-17 02:34 | 34.67689 | 114.85894 | 34132 ft | 467 kts | 195° |
| 2026-04-17 02:34 | 34.61215 | 114.85257 | 34132 ft | 467 kts | 195° |
| 2026-04-17 02:35 | 34.54738 | 114.84619 | 34133 ft | 467 kts | 195° |
| 2026-04-17 02:35 | 34.45021 | 114.83666 | 34133 ft | 467 kts | 195° |
| 2026-04-17 02:36 | 34.38542 | 114.83031 | 34132 ft | 467 kts | 195° |
| 2026-04-17 02:36 | 34.33157 | 114.82505 | 34130 ft | 467 kts | 195° |
| 2026-04-17 02:37 | 34.26687 | 114.81873 | 34132 ft | 466 kts | 195° |
| 2026-04-17 02:37 | 34.20219 | 114.81242 | 34128 ft | 466 kts | 195° |
| 2026-04-17 02:38 | 34.13712 | 114.80615 | 34129 ft | 466 kts | 195° |
| 2026-04-17 02:38 | 34.07295 | 114.79996 | 34129 ft | 466 kts | 194° |
| 2026-04-17 02:39 | 34.00834 | 114.79371 | 34130 ft | 466 kts | 194° |
| 2026-04-17 02:39 | 33.94383 | 114.78751 | 34130 ft | 465 kts | 194° |
| 2026-04-17 02:40 | 33.87927 | 114.78135 | 34131 ft | 465 kts | 194° |
| 2026-04-17 02:40 | 33.81476 | 114.77526 | 34129 ft | 465 kts | 194° |
| 2026-04-17 02:41 | 33.75030 | 114.76884 | 34133 ft | 464 kts | 194° |
| 2026-04-17 02:41 | 33.68597 | 114.76231 | 34137 ft | 464 kts | 194° |
| 2026-04-17 02:42 | 33.62161 | 114.75625 | 34135 ft | 464 kts | 194° |
| 2026-04-17 02:42 | 33.55725 | 114.75027 | 34122 ft | 463 kts | 194° |
| 2026-04-17 02:43 | 33.49311 | 114.74364 | 34125 ft | 463 kts | 194° |
| 2026-04-17 02:43 | 33.42883 | 114.73707 | 34125 ft | 463 kts | 194° |
| 2026-04-17 02:44 | 33.36457 | 114.73083 | 34132 ft | 463 kts | 193° |
| 2026-04-17 02:44 | 33.30033 | 114.72467 | 34131 ft | 463 kts | 193° |
| 2026-04-17 02:45 | 33.23613 | 114.71851 | 34128 ft | 462 kts | 193° |
| 2026-04-17 02:45 | 33.17201 | 114.71237 | 34126 ft | 462 kts | 193° |
| 2026-04-17 02:46 | 33.10803 | 114.70604 | 34126 ft | 461 kts | 193° |
| 2026-04-17 02:46 | 33.04405 | 114.69966 | 34126 ft | 461 kts | 193° |
| 2026-04-17 02:47 | 32.98013 | 114.69332 | 34127 ft | 461 kts | 193° |
| 2026-04-17 02:47 | 32.91621 | 114.68703 | 34131 ft | 461 kts | 193° |
| 2026-04-17 02:48 | 32.85231 | 114.68077 | 34123 ft | 461 kts | 193° |
| 2026-04-17 02:48 | 32.78841 | 114.67473 | 34127 ft | 460 kts | 193° |
| 2026-04-17 02:49 | 32.72462 | 114.66877 | 34127 ft | 460 kts | 193° |
| 2026-04-17 02:49 | 32.66089 | 114.66280 | 34127 ft | 459 kts | 193° |
| 2026-04-17 02:50 | 32.59732 | 114.65682 | 34126 ft | 458 kts | 193° |
| 2026-04-17 02:50 | 32.53371 | 114.65083 | 34126 ft | 458 kts | 193° |
| 2026-04-17 02:51 | 32.47024 | 114.64486 | 34126 ft | 457 kts | 193° |
| 2026-04-17 02:51 | 32.40697 | 114.63893 | 34128 ft | 456 kts | 193° |
| 2026-04-17 02:52 | 32.34382 | 114.63299 | 34128 ft | 455 kts | 193° |
| 2026-04-17 02:52 | 32.28081 | 114.62677 | 34125 ft | 454 kts | 193° |
| 2026-04-17 02:53 | 32.21800 | 114.62062 | 34129 ft | 453 kts | 193° |
| 2026-04-17 02:53 | 32.15565 | 114.61455 | 34128 ft | 452 kts | 193° |
| 2026-04-17 02:54 | 32.09304 | 114.60847 | 34127 ft | 451 kts | 193° |
| 2026-04-17 02:54 | 32.03055 | 114.60242 | 33942 ft | 452 kts | 193° |
| 2026-04-17 02:55 | 31.99908 | 114.59933 | 33679 ft | 456 kts | 193° |
| 2026-04-17 02:55 | 31.96743 | 114.59626 | 33411 ft | 458 kts | 193° |
| 2026-04-17 02:55 | 31.93560 | 114.59318 | 33143 ft | 459 kts | 193° |
| 2026-04-17 02:55 | 31.90373 | 114.59010 | 32884 ft | 461 kts | 192° |
| 2026-04-17 02:56 | 31.87164 | 114.58701 | 32624 ft | 463 kts | 192° |
| 2026-04-17 02:56 | 31.83950 | 114.58391 | 32355 ft | 465 kts | 192° |
| 2026-04-17 02:56 | 31.80713 | 114.58078 | 32114 ft | 467 kts | 192° |
| 2026-04-17 02:56 | 31.77469 | 114.57766 | 31860 ft | 469 kts | 192° |
| 2026-04-17 02:57 | 31.74215 | 114.57453 | 31608 ft | 470 kts | 192° |
| 2026-04-17 02:57 | 31.70967 | 114.57144 | 30832 ft | 469 kts | 192° |
| 2026-04-17 02:57 | 31.67707 | 114.56829 | 29829 ft | 472 kts | 192° |
| 2026-04-17 02:57 | 31.64429 | 114.56513 | 28905 ft | 472 kts | 191° |
| 2026-04-17 02:58 | 31.61193 | 114.56214 | 28183 ft | 456 kts | 191° |
| 2026-04-17 02:58 | 31.58058 | 114.55916 | 27527 ft | 450 kts | 191° |
| 2026-04-17 02:58 | 31.54940 | 114.55613 | 26866 ft | 448 kts | 191° |
| 2026-04-17 02:58 | 31.51848 | 114.55315 | 26192 ft | 445 kts | 190° |
| 2026-04-17 02:59 | 31.48780 | 114.55020 | 25530 ft | 442 kts | 190° |
| 2026-04-17 02:59 | 31.45711 | 114.54725 | 24865 ft | 439 kts | 190° |
| 2026-04-17 02:59 | 31.42672 | 114.54433 | 24211 ft | 437 kts | 189° |
| 2026-04-17 02:59 | 31.39649 | 114.54142 | 23527 ft | 435 kts | 189° |
| 2026-04-17 03:00 | 31.36648 | 114.53856 | 22804 ft | 432 kts | 189° |
| 2026-04-17 03:00 | 31.33672 | 114.53572 | 22129 ft | 427 kts | 189° |
| 2026-04-17 03:00 | 31.30728 | 114.53293 | 21480 ft | 422 kts | 188° |
| 2026-04-17 03:00 | 31.27823 | 114.52999 | 20812 ft | 416 kts | 190° |
| 2026-04-17 03:01 | 31.25029 | 114.52288 | 20147 ft | 406 kts | 203° |
| 2026-04-17 03:01 | 31.22559 | 114.50777 | 19502 ft | 397 kts | 218° |
| 2026-04-17 03:01 | 31.20431 | 114.48769 | 18851 ft | 392 kts | 223° |
| 2026-04-17 03:01 | 31.18385 | 114.46688 | 18198 ft | 389 kts | 222° |
| 2026-04-17 03:02 | 31.16348 | 114.44623 | 17502 ft | 387 kts | 222° |
| 2026-04-17 03:02 | 31.14318 | 114.42578 | 16843 ft | 384 kts | 222° |
| 2026-04-17 03:02 | 31.12296 | 114.40548 | 16191 ft | 382 kts | 222° |
| 2026-04-17 03:02 | 31.10312 | 114.38560 | 15544 ft | 380 kts | 222° |
| 2026-04-17 03:03 | 31.08308 | 114.36557 | 14890 ft | 379 kts | 222° |
| 2026-04-17 03:03 | 31.06309 | 114.34560 | 14230 ft | 377 kts | 222° |
| 2026-04-17 03:03 | 31.04297 | 114.32552 | 13528 ft | 375 kts | 222° |
| 2026-04-17 03:03 | 31.02345 | 114.30604 | 12840 ft | 374 kts | 222° |
| 2026-04-17 03:04 | 31.00381 | 114.28644 | 12185 ft | 372 kts | 222° |
| 2026-04-17 03:04 | 30.98426 | 114.26674 | 11515 ft | 369 kts | 223° |
| 2026-04-17 03:04 | 30.96538 | 114.24729 | 11169 ft | 346 kts | 223° |
| 2026-04-17 03:04 | 30.94828 | 114.22971 | 11030 ft | 311 kts | 223° |
| 2026-04-17 03:05 | 30.93283 | 114.21385 | 10894 ft | 285 kts | 223° |
| 2026-04-17 03:05 | 30.91812 | 114.19875 | 10771 ft | 281 kts | 223° |
| 2026-04-17 03:05 | 30.90352 | 114.18375 | 10652 ft | 280 kts | 223° |
| 2026-04-17 03:05 | 30.88891 | 114.16877 | 10523 ft | 280 kts | 223° |
| 2026-04-17 03:06 | 30.87430 | 114.15383 | 10418 ft | 279 kts | 223° |
| 2026-04-17 03:06 | 30.85973 | 114.13894 | 10297 ft | 279 kts | 223° |
| 2026-04-17 03:06 | 30.84516 | 114.12406 | 10061 ft | 278 kts | 222° |
| 2026-04-17 03:06 | 30.83070 | 114.10935 | 9759 ft | 270 kts | 222° |
| 2026-04-17 03:07 | 30.81676 | 114.09510 | 9389 ft | 264 kts | 222° |
| 2026-04-17 03:07 | 30.80302 | 114.08102 | 9065 ft | 263 kts | 222° |
| 2026-04-17 03:07 | 30.78930 | 114.06699 | 8754 ft | 262 kts | 222° |
| 2026-04-17 03:07 | 30.77564 | 114.05303 | 8433 ft | 261 kts | 222° |
| 2026-04-17 03:08 | 30.76204 | 114.03915 | 8144 ft | 260 kts | 221° |
| 2026-04-17 03:08 | 30.74847 | 114.02530 | 7841 ft | 259 kts | 221° |
| 2026-04-17 03:08 | 30.73495 | 114.01152 | 7538 ft | 258 kts | 221° |
| 2026-04-17 03:08 | 30.72151 | 113.99782 | 7229 ft | 257 kts | 221° |
| 2026-04-17 03:09 | 30.70808 | 113.98414 | 6930 ft | 256 kts | 221° |
| 2026-04-17 03:09 | 30.69473 | 113.97054 | 6625 ft | 255 kts | 221° |
| 2026-04-17 03:09 | 30.68140 | 113.95697 | 6324 ft | 254 kts | 221° |
| 2026-04-17 03:09 | 30.66808 | 113.94342 | 6194 ft | 254 kts | 221° |
| 2026-04-17 03:10 | 30.65458 | 113.93017 | 6032 ft | 254 kts | 217° |
| 2026-04-17 03:10 | 30.63871 | 113.92189 | 5903 ft | 248 kts | 187° |
| 2026-04-17 03:10 | 30.62254 | 113.92404 | 5664 ft | 227 kts | 154° |
| 2026-04-17 03:10 | 30.61013 | 113.93426 | 5482 ft | 217 kts | 131° |
| 2026-04-17 03:11 | 30.60004 | 113.94733 | 5230 ft | 217 kts | 127° |
| 2026-04-17 03:11 | 30.59026 | 113.96071 | 5018 ft | 217 kts | 128° |
| 2026-04-17 03:11 | 30.58039 | 113.97408 | 4958 ft | 218 kts | 128° |
| 2026-04-17 03:11 | 30.57077 | 113.98760 | 4871 ft | 217 kts | 123° |
| 2026-04-17 03:12 | 30.56717 | 114.00402 | 4798 ft | 210 kts | 82° |
| 2026-04-17 03:12 | 30.57267 | 114.01936 | 4729 ft | 208 kts | 54° |
| 2026-04-17 03:12 | 30.58218 | 114.03156 | 4558 ft | 201 kts | 41° |
| 2026-04-17 03:12 | 30.59255 | 114.04210 | 4307 ft | 196 kts | 40° |
| 2026-04-17 03:13 | 30.60278 | 114.05245 | 4053 ft | 195 kts | 40° |
| 2026-04-17 03:13 | 30.61301 | 114.06289 | 3903 ft | 196 kts | 40° |
| 2026-04-17 03:13 | 30.62324 | 114.07338 | 3890 ft | 196 kts | 40° |
| 2026-04-17 03:13 | 30.63343 | 114.08390 | 3802 ft | 196 kts | 41° |
| 2026-04-17 03:14 | 30.64353 | 114.09427 | 3588 ft | 191 kts | 40° |
| 2026-04-17 03:14 | 30.65347 | 114.10439 | 3336 ft | 188 kts | 40° |
| 2026-04-17 03:14 | 30.66322 | 114.11435 | 3072 ft | 186 kts | 40° |
| 2026-04-17 03:14 | 30.67290 | 114.12424 | 2818 ft | 184 kts | 40° |
| 2026-04-17 03:15 | 30.68225 | 114.13381 | 2574 ft | 174 kts | 40° |
| 2026-04-17 03:15 | 30.69101 | 114.14277 | 2363 ft | 162 kts | 39° |
| 2026-04-17 03:15 | 30.69926 | 114.15120 | 2139 ft | 154 kts | 39° |
| 2026-04-17 03:15 | 30.70705 | 114.15917 | 1956 ft | 145 kts | 39° |
| 2026-04-17 03:16 | 30.71447 | 114.16676 | 1761 ft | 140 kts | 39° |
| 2026-04-17 03:16 | 30.72165 | 114.17411 | 1588 ft | 136 kts | 39° |
| 2026-04-17 03:16 | 30.72870 | 114.18131 | 1398 ft | 136 kts | 39° |
| 2026-04-17 03:16 | 30.73579 | 114.18853 | 1146 ft | 136 kts | 38° |
| 2026-04-17 03:17 | 30.74294 | 114.19583 | 901 ft | 138 kts | 40° |
| 2026-04-17 03:17 | 30.75023 | 114.20332 | 538 ft | 146 kts | 41° |
| 2026-04-17 03:17 | 30.75799 | 114.21128 | 200 ft | 150 kts | 40° |
| 2026-04-17 03:17 | 30.76543 | 114.21888 | 141 ft | 119 kts | 41° |
| 2026-04-17 03:18 | 30.76941 | 114.22296 | 141 ft | 34 kts | 41° |
| 2026-04-17 03:18 | 30.77008 | 114.22365 | 140 ft | 16 kts | 41° |
| 2026-04-17 03:18 | 30.77209 | 114.22514 | 140 ft | 42 kts | 17° |
| 2026-04-17 03:18 | 30.77313 | 114.22548 | 140 ft | 0 kts | 16° |
| 2026-04-17 03:19 | 30.77317 | 114.22548 | 140 ft | 2 kts | 7° |
| 2026-04-17 03:19 | 30.77374 | 114.22506 | 138 ft | 1 kts | 290° |
| 2026-04-17 03:19 | 30.77352 | 114.22453 | 138 ft | 11 kts | 233° |
| 2026-04-17 03:20 | 30.77248 | 114.22338 | 138 ft | 27 kts | 220° |
| 2026-04-17 03:20 | 30.77192 | 114.22250 | 138 ft | 1 kts | 270° |
| 2026-04-17 03:20 | 30.77242 | 114.22158 | 137 ft | 18 kts | 316° |
| 2026-04-17 03:20 | 30.77332 | 114.22046 | 137 ft | 21 kts | 312° |
| 2026-04-17 03:21 | 30.77410 | 114.21944 | 137 ft | 0 kts | 312° |
| 2026-04-17 03:21 | 30.77465 | 114.21873 | 137 ft | 29 kts | 312° |
| 2026-04-17 03:21 | 30.77496 | 114.21827 | 137 ft | 0 kts | 292° |
| 2026-04-17 03:21 | 30.77478 | 114.21758 | 137 ft | 7 kts | 227° |
| 2026-04-17 03:22 | 30.77451 | 114.21726 | 137 ft | 0 kts | 223° |
| 2026-04-17 03:22 | 30.77450 | 114.21726 | 137 ft | 0 kts | 223° |